createdAt,value
2023-03-18T00:01:38.239Z,16.37
2023-03-18T00:04:06.272Z,14.03
2023-03-18T00:06:36.431Z,18.87
2023-03-18T00:09:05.572Z,16.85
2023-03-18T00:11:33.083Z,18.87
2023-03-18T00:14:00.647Z,18.82
2023-03-18T00:16:28.802Z,17.92
2023-03-18T00:18:56.650Z,18.37
2023-03-18T00:21:24.762Z,18.40
2023-03-18T00:23:53.986Z,14.85
2023-03-18T00:26:23.220Z,16.75
2023-03-18T00:28:50.850Z,16.50
2023-03-18T00:31:19.534Z,18.77
2023-03-18T00:33:47.411Z,15.72
2023-03-18T00:36:15.448Z,16.77
2023-03-18T00:38:46.115Z,15.13
2023-03-18T00:41:16.468Z,15.63
2023-03-18T00:43:47.543Z,15.65
2023-03-18T00:46:17.866Z,15.28
2023-03-18T00:48:46.505Z,17.48
2023-03-18T00:51:17.153Z,15.78
2023-03-18T00:56:32.482Z,17.07
2023-03-18T00:59:03.148Z,18.15
2023-03-18T01:01:31.591Z,16.55
2023-03-18T01:04:01.091Z,15.88
2023-03-18T01:06:32.897Z,16.00
2023-03-18T01:09:01.745Z,16.02
2023-03-18T01:11:29.966Z,16.77
2023-03-18T01:13:57.478Z,14.78
2023-03-18T01:16:25.989Z,13.32
2023-03-18T01:18:56.855Z,22.48
2023-03-18T01:21:24.681Z,16.40
2023-03-18T01:23:54.598Z,15.90
2023-03-18T01:26:23.408Z,14.43
2023-03-18T01:28:50.822Z,15.58
2023-03-18T01:31:19.722Z,13.65
2023-03-18T01:34:08.192Z,14.78
2023-03-18T01:36:37.819Z,15.48
2023-03-18T01:39:07.787Z,14.78
2023-03-18T01:41:36.905Z,15.95
2023-03-18T01:44:05.058Z,15.50
2023-03-18T01:46:41.865Z,19.27
2023-03-18T01:49:25.359Z,14.70
2023-03-18T01:51:59.539Z,14.30
2023-03-18T01:54:30.206Z,13.62
2023-03-18T01:57:14.702Z,13.88
2023-03-18T01:59:43.167Z,14.68
2023-03-18T02:02:13.530Z,12.90
2023-03-18T02:04:48.288Z,14.50
2023-03-18T02:07:21.495Z,15.48
2023-03-18T02:09:50.749Z,15.35
2023-03-18T02:12:25.294Z,13.13
2023-03-18T02:14:54.981Z,14.43
2023-03-18T02:17:26.130Z,15.18
2023-03-18T02:20:12.837Z,13.83
2023-03-18T02:22:44.248Z,12.53
2023-03-18T02:25:35.745Z,15.08
2023-03-18T02:28:05.960Z,13.28
2023-03-18T02:30:37.337Z,14.15
2023-03-18T02:33:07.332Z,13.75
2023-03-18T02:35:36.213Z,13.05
2023-03-18T02:38:05.356Z,14.00
2023-03-18T02:40:39.752Z,14.07
2023-03-18T02:43:25.962Z,12.53
2023-03-18T02:46:08.276Z,16.62
2023-03-18T02:48:39.576Z,13.32
2023-03-18T02:51:09.206Z,13.80
2023-03-18T02:53:38.026Z,13.38
2023-03-18T02:56:07.515Z,14.83
2023-03-18T02:58:35.876Z,13.62
2023-03-18T03:01:05.848Z,13.25
2023-03-18T03:03:35.422Z,12.55
2023-03-18T03:06:03.591Z,13.62
2023-03-18T03:08:32.020Z,15.05
2023-03-18T03:10:59.771Z,15.05
2023-03-18T03:13:29.795Z,12.63
2023-03-18T03:15:57.614Z,15.70
2023-03-18T03:18:26.693Z,14.23
2023-03-18T03:20:54.396Z,16.42
2023-03-18T03:23:22.018Z,13.80
2023-03-18T03:25:50.115Z,12.25
2023-03-18T03:28:17.670Z,12.88
2023-03-18T03:30:46.234Z,15.32
2023-03-18T03:33:14.011Z,14.38
2023-03-18T03:35:42.417Z,12.43
2023-03-18T03:38:10.054Z,14.53
2023-03-18T03:40:39.166Z,12.88
2023-03-18T03:43:09.422Z,13.20
2023-03-18T03:45:37.991Z,13.43
2023-03-18T03:48:06.524Z,12.95
2023-03-18T03:50:34.016Z,14.45
2023-03-18T03:53:02.768Z,15.30
2023-03-18T03:55:30.766Z,14.25
2023-03-18T03:57:58.307Z,13.18
2023-03-18T04:00:27.820Z,14.83
2023-03-18T04:02:55.434Z,18.90
2023-03-18T04:05:25.639Z,12.40
2023-03-18T04:07:53.876Z,14.23
2023-03-18T04:10:23.615Z,14.30
2023-03-18T04:12:51.108Z,14.00
2023-03-18T04:15:20.382Z,14.53
2023-03-18T04:17:50.459Z,13.50
2023-03-18T04:20:19.193Z,15.60
2023-03-18T04:22:47.594Z,14.40
2023-03-18T04:25:16.011Z,13.13
2023-03-18T04:27:47.036Z,14.58
2023-03-18T04:30:16.277Z,16.40
2023-03-18T04:32:48.658Z,16.80
2023-03-18T04:35:18.200Z,12.60
2023-03-18T04:37:46.167Z,14.93
2023-03-18T04:40:14.297Z,15.53
2023-03-18T04:42:41.809Z,16.45
2023-03-18T04:45:10.628Z,13.20
2023-03-18T04:47:57.821Z,14.70
2023-03-18T04:50:25.928Z,17.77
2023-03-18T04:55:40.822Z,13.45
2023-03-18T04:58:10.081Z,15.93
2023-03-18T05:00:40.685Z,13.13
2023-03-18T05:03:15.960Z,16.52
2023-03-18T05:05:45.144Z,18.12
2023-03-18T05:08:13.524Z,14.63
2023-03-18T05:10:41.952Z,18.45
2023-03-18T05:13:11.226Z,14.98
2023-03-18T05:15:52.760Z,17.05
2023-03-18T05:18:20.795Z,14.50
2023-03-18T05:20:50.313Z,16.10
2023-03-18T05:23:18.695Z,15.13
2023-03-18T05:25:54.123Z,13.68
2023-03-18T05:28:23.208Z,16.32
2023-03-18T05:30:56.117Z,17.92
2023-03-18T05:33:26.333Z,16.45
2023-03-18T05:35:56.082Z,15.13
2023-03-18T05:38:26.498Z,17.35
2023-03-18T05:40:54.192Z,17.87
2023-03-18T05:43:27.043Z,16.60
2023-03-18T05:45:58.757Z,15.65
2023-03-18T05:48:37.298Z,14.68
2023-03-18T05:51:06.995Z,13.45
2023-03-18T05:53:35.936Z,15.43
2023-03-18T05:56:06.070Z,17.52
2023-03-18T05:58:34.549Z,17.57
2023-03-18T06:01:11.518Z,13.85
2023-03-18T06:04:00.294Z,15.23
2023-03-18T06:06:28.522Z,13.45
2023-03-18T06:08:56.739Z,16.77
2023-03-18T06:11:25.178Z,17.27
2023-03-18T06:13:53.607Z,32.20
2023-03-18T06:16:23.594Z,35.15
2023-03-18T06:18:52.592Z,30.08
2023-03-18T06:21:20.709Z,19.82
2023-03-18T06:24:08.943Z,18.32
2023-03-18T06:26:37.451Z,16.67
2023-03-18T06:29:05.890Z,15.25
2023-03-18T06:31:35.026Z,16.32
2023-03-18T06:34:02.855Z,17.90
2023-03-18T06:36:33.832Z,20.32
2023-03-18T06:39:02.576Z,16.32
2023-03-18T06:41:45.242Z,18.98
2023-03-18T06:44:24.307Z,18.48
2023-03-18T06:46:56.530Z,20.75
2023-03-18T06:49:24.972Z,23.15
2023-03-18T06:51:55.021Z,22.67
2023-03-18T06:54:23.594Z,21.65
2023-03-18T06:56:51.997Z,22.58
2023-03-18T06:59:21.467Z,22.60
2023-03-18T07:01:51.032Z,22.90
2023-03-18T07:04:20.936Z,18.60
2023-03-18T07:06:49.189Z,15.10
2023-03-18T07:09:17.112Z,23.67
2023-03-18T07:11:47.436Z,19.80
2023-03-18T07:14:17.071Z,20.12
2023-03-18T07:16:58.312Z,19.55
2023-03-18T07:19:26.109Z,21.37
2023-03-18T07:21:53.916Z,21.25
2023-03-18T07:24:21.736Z,20.55
2023-03-18T07:26:53.826Z,18.82
2023-03-18T07:29:21.356Z,21.82
2023-03-18T07:31:49.563Z,22.32
2023-03-18T07:34:18.826Z,25.05
2023-03-18T07:36:46.495Z,24.37
2023-03-18T07:39:14.713Z,22.05
2023-03-18T07:41:42.294Z,19.73
2023-03-18T07:44:09.894Z,25.75
2023-03-18T07:46:39.681Z,23.75
2023-03-18T07:49:07.502Z,19.00
2023-03-18T07:51:35.729Z,29.27
2023-03-18T07:54:04.564Z,21.95
2023-03-18T07:56:31.882Z,22.65
2023-03-18T07:58:59.801Z,25.55
2023-03-18T08:01:27.906Z,23.05
2023-03-18T08:03:55.839Z,23.45
2023-03-18T08:06:24.330Z,24.37
2023-03-18T08:08:52.378Z,24.82
2023-03-18T08:11:19.834Z,19.15
2023-03-18T08:13:51.080Z,20.72
2023-03-18T08:16:19.178Z,22.07
2023-03-18T08:18:47.151Z,22.52
2023-03-18T08:21:15.621Z,23.47
2023-03-18T08:23:43.186Z,20.35
2023-03-18T08:26:11.914Z,22.02
2023-03-18T08:28:39.943Z,22.80
2023-03-18T08:31:16.565Z,26.55
2023-03-18T08:33:44.115Z,25.92
2023-03-18T08:36:12.337Z,21.52
2023-03-18T08:38:40.492Z,21.57
2023-03-18T08:41:17.168Z,22.58
2023-03-18T08:43:45.559Z,23.15
2023-03-18T08:46:14.040Z,20.62
2023-03-18T08:48:42.223Z,19.15
2023-03-18T08:51:09.628Z,22.37
2023-03-18T08:53:38.771Z,20.62
2023-03-18T08:56:12.819Z,21.50
2023-03-18T08:58:40.640Z,25.82
2023-03-18T09:01:10.775Z,21.97
2023-03-18T09:03:37.896Z,25.10
2023-03-18T09:06:06.196Z,22.82
2023-03-18T09:08:34.369Z,25.92
2023-03-18T09:11:03.224Z,26.70
2023-03-18T09:13:33.577Z,26.30
2023-03-18T09:16:01.114Z,22.20
2023-03-18T09:18:30.117Z,25.40
2023-03-18T09:20:57.552Z,26.65
2023-03-18T09:23:26.790Z,23.60
2023-03-18T09:25:55.131Z,25.45
2023-03-18T09:28:23.439Z,25.88
2023-03-18T09:30:51.475Z,25.72
2023-03-18T09:33:20.029Z,24.67
2023-03-18T09:35:48.824Z,31.07
2023-03-18T09:38:18.799Z,32.30
2023-03-18T09:40:51.366Z,22.25
2023-03-18T09:43:55.170Z,26.97
2023-03-18T09:46:26.413Z,24.87
2023-03-18T09:49:30.298Z,23.25
2023-03-18T09:52:21.551Z,21.20
2023-03-18T09:55:06.956Z,23.18
2023-03-18T09:57:37.707Z,24.77
2023-03-18T10:00:12.389Z,22.58
2023-03-18T10:02:50.397Z,24.98
2023-03-18T10:05:49.428Z,25.12
2023-03-18T10:08:26.947Z,23.05
2023-03-18T10:10:54.477Z,24.15
2023-03-18T10:13:28.926Z,25.70
2023-03-18T10:15:59.242Z,26.57
2023-03-18T10:18:35.854Z,26.27
2023-03-18T10:21:35.461Z,34.35
2023-03-18T10:24:07.817Z,23.87
2023-03-18T10:26:52.623Z,22.77
2023-03-18T10:29:44.827Z,28.80
2023-03-18T10:32:46.865Z,26.40
2023-03-18T10:35:33.789Z,27.15
2023-03-18T10:38:05.993Z,30.88
2023-03-18T10:40:39.025Z,25.57
2023-03-18T10:43:19.853Z,24.55
2023-03-18T10:45:50.971Z,25.77
2023-03-18T10:48:28.380Z,24.20
2023-03-18T10:51:19.695Z,32.50
2023-03-18T10:54:00.587Z,24.43
2023-03-18T10:56:28.834Z,28.83
2023-03-18T10:58:58.285Z,28.12
2023-03-18T11:01:29.896Z,26.95
2023-03-18T11:04:04.042Z,27.20
2023-03-18T11:06:47.562Z,28.80
2023-03-18T11:09:21.063Z,29.23
2023-03-18T11:11:51.200Z,32.42
2023-03-18T11:14:25.090Z,27.70
2023-03-18T11:17:03.160Z,30.17
2023-03-18T11:19:40.438Z,27.85
2023-03-18T11:22:28.401Z,27.75
2023-03-18T11:25:15.827Z,26.82
2023-03-18T11:27:46.907Z,31.57
2023-03-18T11:30:35.019Z,28.50
2023-03-18T11:33:09.252Z,31.65
2023-03-18T11:35:49.586Z,26.15
2023-03-18T11:38:29.646Z,31.12
2023-03-18T11:41:17.555Z,30.90
2023-03-18T11:44:00.523Z,32.15
2023-03-18T11:46:40.320Z,39.67
2023-03-18T11:49:11.800Z,86.08
2023-03-18T11:51:46.152Z,32.03
2023-03-18T11:54:23.625Z,34.15
2023-03-18T11:56:58.384Z,30.25
2023-03-18T11:59:54.071Z,29.82
2023-03-18T12:05:03.316Z,31.45
2023-03-18T12:08:02.655Z,36.73
2023-03-18T12:10:41.671Z,37.55
2023-03-18T12:13:28.260Z,33.33
2023-03-18T12:16:04.104Z,37.28
2023-03-18T12:18:51.140Z,35.20
2023-03-18T12:21:25.844Z,32.75
2023-03-18T12:24:09.411Z,36.45
2023-03-18T12:26:52.062Z,30.65
2023-03-18T12:30:00.146Z,33.48
2023-03-18T12:32:34.454Z,33.08
2023-03-18T12:35:16.038Z,32.80
2023-03-18T12:38:04.169Z,34.18
2023-03-18T12:40:48.253Z,31.25
2023-03-18T12:43:38.170Z,33.40
2023-03-18T12:46:28.059Z,30.85
2023-03-18T12:49:11.603Z,33.83
2023-03-18T12:52:02.028Z,34.23
2023-03-18T12:54:33.653Z,31.85
2023-03-18T12:57:06.467Z,33.90
2023-03-18T12:59:40.981Z,34.48
2023-03-18T13:02:32.821Z,36.30
2023-03-18T13:05:03.827Z,36.53
2023-03-18T13:07:38.601Z,31.48
2023-03-18T13:10:09.902Z,30.52
2023-03-18T13:12:44.030Z,34.08
2023-03-18T13:15:33.752Z,31.52
2023-03-18T13:18:09.134Z,32.15
2023-03-18T13:20:40.281Z,34.75
2023-03-18T13:23:30.302Z,30.77
2023-03-18T13:26:07.940Z,30.23
2023-03-18T13:28:45.753Z,30.95
2023-03-18T13:31:34.727Z,32.42
2023-03-18T13:34:29.654Z,33.92
2023-03-18T13:37:13.463Z,38.95
2023-03-18T13:40:00.131Z,31.40
2023-03-18T13:42:38.810Z,32.98
2023-03-18T13:45:20.225Z,30.35
2023-03-18T13:47:52.052Z,33.42
2023-03-18T13:50:23.770Z,34.08
2023-03-18T13:52:57.309Z,30.52
2023-03-18T13:55:35.224Z,29.02
2023-03-18T13:58:18.518Z,33.20
2023-03-18T14:00:59.327Z,29.75
2023-03-18T14:03:30.696Z,33.28
2023-03-18T14:06:19.850Z,29.85
2023-03-18T14:08:49.923Z,34.48
2023-03-18T14:11:23.284Z,36.00
2023-03-18T14:14:02.360Z,31.30
2023-03-18T14:16:33.287Z,31.42
2023-03-18T14:19:06.312Z,31.02
2023-03-18T14:21:35.077Z,31.45
2023-03-18T14:24:22.230Z,30.70
2023-03-18T14:27:05.320Z,32.15
2023-03-18T14:29:39.919Z,30.45
2023-03-18T14:32:28.564Z,29.30
2023-03-18T14:34:59.181Z,29.80
2023-03-18T14:37:33.061Z,29.90
2023-03-18T14:40:09.127Z,30.33
2023-03-18T14:42:53.794Z,33.53
2023-03-18T14:45:31.709Z,30.45
2023-03-18T14:48:02.134Z,31.02
2023-03-18T14:50:36.948Z,35.25
2023-03-18T14:53:14.086Z,33.20
2023-03-18T14:55:44.296Z,35.43
2023-03-18T14:58:17.806Z,28.65
2023-03-18T15:00:49.098Z,34.13
2023-03-18T15:03:28.984Z,29.72
2023-03-18T15:05:59.571Z,30.25
2023-03-18T15:08:44.837Z,27.17
2023-03-18T15:11:00.716Z,28.52
2023-03-18T15:13:28.582Z,27.70
2023-03-18T15:15:57.328Z,28.67
2023-03-18T15:18:36.048Z,27.15
2023-03-18T15:21:07.474Z,29.90
2023-03-18T15:23:48.398Z,28.25
2023-03-18T15:26:23.604Z,29.60
2023-03-18T15:28:57.403Z,26.52
2023-03-18T15:31:31.376Z,26.48
2023-03-18T15:34:08.743Z,25.95
2023-03-18T15:36:43.735Z,28.47
2023-03-18T15:39:35.812Z,28.25
2023-03-18T15:42:07.090Z,26.37
2023-03-18T15:44:40.475Z,30.50
2023-03-18T15:47:17.683Z,28.17
2023-03-18T15:50:00.661Z,28.12
2023-03-18T15:52:34.718Z,28.85
2023-03-18T15:55:04.683Z,31.02
2023-03-18T15:57:40.218Z,32.85
2023-03-18T16:00:10.172Z,27.95
2023-03-18T16:02:40.573Z,27.40
2023-03-18T16:05:26.453Z,30.12
2023-03-18T16:07:55.836Z,29.95
2023-03-18T16:10:25.986Z,28.70
2023-03-18T16:12:59.621Z,31.33
2023-03-18T16:15:28.381Z,34.58
2023-03-18T16:17:57.532Z,31.27
2023-03-18T16:20:30.696Z,28.67
2023-03-18T16:23:00.126Z,26.02
2023-03-18T16:25:28.453Z,27.52
2023-03-18T16:27:59.269Z,31.17
2023-03-18T16:30:30.249Z,26.30
2023-03-18T16:32:59.073Z,28.50
2023-03-18T16:35:31.154Z,29.87
2023-03-18T16:38:00.599Z,29.63
2023-03-18T16:40:31.231Z,30.50
2023-03-18T16:42:59.304Z,32.88
2023-03-18T16:45:32.773Z,27.27
2023-03-18T16:48:03.308Z,33.92
2023-03-18T16:50:39.508Z,32.05
2023-03-18T16:53:26.622Z,30.62
2023-03-18T16:56:01.022Z,29.40
2023-03-18T16:58:36.987Z,28.17
2023-03-18T17:01:07.532Z,31.85
2023-03-18T17:03:35.974Z,31.62
2023-03-18T17:06:03.719Z,31.75
2023-03-18T17:08:31.307Z,34.60
2023-03-18T17:11:02.395Z,39.10
2023-03-18T17:13:33.208Z,38.53
2023-03-18T17:16:02.112Z,40.63
2023-03-18T17:18:30.445Z,38.50
2023-03-18T17:20:58.280Z,39.05
2023-03-18T17:23:27.819Z,38.75
2023-03-18T17:25:59.462Z,37.45
2023-03-18T17:28:36.880Z,37.65
2023-03-18T17:31:06.328Z,38.78
2023-03-18T17:33:36.250Z,41.65
2023-03-18T17:36:06.394Z,39.45
2023-03-18T17:38:37.409Z,40.28
2023-03-18T17:41:18.057Z,42.15
2023-03-18T17:43:47.533Z,42.35
2023-03-18T17:46:27.769Z,47.40
2023-03-18T17:48:56.046Z,36.80
2023-03-18T17:51:25.118Z,41.35
2023-03-18T17:54:00.778Z,40.23
2023-03-18T17:56:29.194Z,39.27
2023-03-18T17:58:56.806Z,42.05
2023-03-18T18:01:29.533Z,36.65
2023-03-18T18:03:59.246Z,36.40
2023-03-18T18:06:31.470Z,43.92
2023-03-18T18:09:00.809Z,44.53
2023-03-18T18:11:31.363Z,41.08
2023-03-18T18:14:04.986Z,38.55
2023-03-18T18:16:32.980Z,39.48
2023-03-18T18:19:01.864Z,39.48
2023-03-18T18:21:30.097Z,38.92
2023-03-18T18:23:58.741Z,42.08
2023-03-18T18:26:26.749Z,39.27
2023-03-18T18:28:54.875Z,42.95
2023-03-18T18:31:24.300Z,43.63
2023-03-18T18:33:52.691Z,38.83
2023-03-18T18:36:20.474Z,38.53
2023-03-18T18:38:48.033Z,41.85
2023-03-18T18:41:15.994Z,38.90
2023-03-18T18:43:43.789Z,40.88
2023-03-18T18:46:16.564Z,36.13
2023-03-18T18:48:46.916Z,37.33
2023-03-18T18:51:21.888Z,40.78
2023-03-18T18:53:52.676Z,49.30
2023-03-18T18:56:31.744Z,38.45
2023-03-18T18:58:59.541Z,38.48
2023-03-18T19:01:27.751Z,41.13
2023-03-18T19:04:16.017Z,40.17
2023-03-18T19:06:45.283Z,38.65
2023-03-18T19:09:19.083Z,45.05
2023-03-18T19:11:47.517Z,41.83
2023-03-18T19:14:38.149Z,39.73
2023-03-18T19:17:05.597Z,39.25
2023-03-18T19:19:35.111Z,38.23
2023-03-18T19:22:03.950Z,38.48
2023-03-18T19:24:36.367Z,37.28
2023-03-18T19:27:25.191Z,35.20
2023-03-18T19:29:54.909Z,44.48
2023-03-18T19:32:24.058Z,36.15
2023-03-18T19:34:53.220Z,34.03
2023-03-18T19:37:24.644Z,35.20
2023-03-18T19:39:52.537Z,32.90
2023-03-18T19:42:20.379Z,33.08
2023-03-18T19:44:49.094Z,34.78
2023-03-18T19:47:25.550Z,40.80
2023-03-18T19:49:53.931Z,33.67
2023-03-18T19:52:24.853Z,34.10
2023-03-18T19:54:55.314Z,27.70
2023-03-18T19:57:27.631Z,36.80
2023-03-18T19:59:57.913Z,32.50
2023-03-18T20:02:32.187Z,35.48
2023-03-18T20:05:02.804Z,31.43
2023-03-18T20:07:32.980Z,40.70
2023-03-18T20:10:00.947Z,78.05
2023-03-18T20:12:40.038Z,73.15
2023-03-18T20:15:21.569Z,33.92
2023-03-18T20:17:51.189Z,27.05
2023-03-18T20:20:28.993Z,21.35
2023-03-18T20:23:06.640Z,23.55
2023-03-18T20:25:43.465Z,22.02
2023-03-18T20:28:17.620Z,20.25
2023-03-18T20:30:50.902Z,20.08
2023-03-18T20:33:22.477Z,23.35
2023-03-18T20:35:53.314Z,20.95
2023-03-18T20:38:30.141Z,23.40
2023-03-18T20:41:07.010Z,22.67
2023-03-18T20:43:35.925Z,21.70
2023-03-18T20:46:03.885Z,23.40
2023-03-18T20:48:31.690Z,24.43
2023-03-18T20:50:59.053Z,23.55
2023-03-18T20:53:30.191Z,24.30
2023-03-18T20:55:58.056Z,21.23
2023-03-18T20:58:28.736Z,20.88
2023-03-18T21:00:59.881Z,25.35
2023-03-18T21:03:30.328Z,19.20
2023-03-18T21:06:00.509Z,19.90
2023-03-18T21:08:29.023Z,22.05
2023-03-18T21:11:01.372Z,19.92
2023-03-18T21:13:38.641Z,21.10
2023-03-18T21:16:10.803Z,23.42
2023-03-18T21:18:41.346Z,23.38
2023-03-18T21:21:21.881Z,22.80
2023-03-18T21:23:50.314Z,21.50
2023-03-18T21:26:17.723Z,26.05
2023-03-18T21:28:45.730Z,22.15
2023-03-18T21:31:23.173Z,21.30
2023-03-18T21:33:51.745Z,23.85
2023-03-18T21:36:19.505Z,23.55
2023-03-18T21:38:47.224Z,21.73
2023-03-18T21:41:24.592Z,21.97
2023-03-18T21:43:52.249Z,24.25
2023-03-18T21:46:22.664Z,20.97
2023-03-18T21:48:55.384Z,23.62
2023-03-18T21:51:38.734Z,22.87
2023-03-18T21:53:59.421Z,20.00
2023-03-18T21:56:27.544Z,24.23
2023-03-18T21:58:56.327Z,22.65
2023-03-18T22:01:27.916Z,17.73
2023-03-18T22:03:55.535Z,20.82
2023-03-18T22:06:23.112Z,21.48
2023-03-18T22:08:50.496Z,19.55
2023-03-18T22:11:20.763Z,24.00
2023-03-18T22:13:50.560Z,25.15
2023-03-18T22:16:19.076Z,22.67
2023-03-18T22:18:47.706Z,22.55
2023-03-18T22:21:22.001Z,23.45
2023-03-18T22:23:53.268Z,22.55
2023-03-18T22:26:22.323Z,22.45
2023-03-18T22:28:50.865Z,23.70
2023-03-18T22:31:21.961Z,22.75
2023-03-18T22:33:49.874Z,21.77
2023-03-18T22:36:19.217Z,23.15
2023-03-18T22:38:56.467Z,24.27
2023-03-18T22:41:29.215Z,24.50
2023-03-18T22:44:00.502Z,25.10
2023-03-18T22:46:28.660Z,23.20
2023-03-18T22:48:56.520Z,21.40
2023-03-18T22:51:27.940Z,20.75
2023-03-18T22:53:55.958Z,26.93
2023-03-18T22:56:26.945Z,27.10
2023-03-18T22:58:55.233Z,25.43
2023-03-18T23:01:26.905Z,28.20
2023-03-18T23:03:55.038Z,28.10
2023-03-18T23:06:27.498Z,25.72
2023-03-18T23:08:55.083Z,28.45
2023-03-18T23:11:24.057Z,27.65
2023-03-18T23:13:52.352Z,23.73
2023-03-18T23:16:22.534Z,26.87
2023-03-18T23:18:51.664Z,23.32
2023-03-18T23:21:25.114Z,30.37
2023-03-18T23:23:53.348Z,29.37
2023-03-18T23:26:21.257Z,27.67
2023-03-18T23:28:50.821Z,26.62
2023-03-18T23:31:18.616Z,26.97
2023-03-18T23:33:47.442Z,29.67
2023-03-18T23:36:15.420Z,32.00
2023-03-18T23:38:42.790Z,32.35
2023-03-18T23:41:10.388Z,30.05
2023-03-18T23:43:38.972Z,34.03
2023-03-18T23:46:08.895Z,31.00
2023-03-18T23:48:37.153Z,30.32
2023-03-18T23:51:05.142Z,32.70
2023-03-18T23:53:33.260Z,31.15
2023-03-18T23:56:01.228Z,32.48
2023-03-18T23:58:29.105Z,32.55
